Spencer, Massachusetts
Current Conditions -  °F | °C
As of 8:54 AM on Saturday 22 Nov 2014 (Local Time) from KORH Reporting Station
Clear Clear  
Wind Chill: 13°   Ceiling: Unl
Heat Index: 26°   Visibility: 10mi
Dew Point: 10°   Wind: 18mph
Humidity: 51%   Direction: 250°WSW
Pressure: 30.31"   Gusts: 30mph
Location:  42.24°N, 71.99°W
Report Text: KORH 221354Z 25016G26KT 10SM CLR M03/M12 A3031 RMK AO2 PK WND 24026/1349 SLP282 T10331122 $
Loading
Personal Weather Stations






























Interactive Weather Map New forecast layout! Learn more

10-Day Weather Forecast

Advertisements
Track Severe Weather on mobile